METAR Formatted Surface Weather Observation
Issued by NWS Charleston, WV

Home | Current Version | Previous Version | Text Only | Print | Product List | Glossary On
Versions: 1
000
SAUS41 KRLX 030432 COR
MTRBKW
SPECI KBKW 030426Z AUTO 23006KT 10SM OVC005 20/18 A3010 RMK AO2
T02000183 TSNO



USA.gov is the U.S. government's official web portal to all federal, state and local government web resources and services.